Time;durP1;ratioP1;P1;durP2;ratioP2;P2;SDS_P1;SDS_P2;PMS_P1;PMS_P2;Temp;Humidity;BMP_temperature;BMP_pressure;BME280_temperature;BME280_humidity;BME280_pressure;Samples;Min_cycle;Max_cycle;Signal;HPM_P1;HPM_P2
2022/08/14 00:02:01;;;;;;;4.93;4.40;;;;;;;24.27;39.54;101083.97;4947772;28;125414;-72
2022/08/14 00:04:34;;;;;;;4.55;4.15;;;;;;;24.27;39.64;101083.97;4948728;28;113281;-72
2022/08/14 00:07:11;;;;;;;7.35;4.28;;;;;;;24.27;39.78;101081.25;4966288;28;113932;-72
2022/08/14 00:09:43;;;;;;;5.40;4.07;;;;;;;24.28;39.62;101077.56;4964210;28;124497;-72
2022/08/14 00:12:30;;;;;;;6.32;4.20;;;;;;;24.28;39.62;101074.88;4958338;28;123619;-72
2022/08/14 00:15:27;;;;;;;6.45;4.13;;;;;;;24.28;39.59;101069.44;4947855;28;114033;-72
2022/08/14 00:18:05;;;;;;;4.15;3.75;;;;;;;24.29;39.49;101076.53;4933394;28;113485;-72
2022/08/14 00:20:35;;;;;;;5.35;4.18;;;;;;;24.31;39.44;101072.84;4960124;28;122923;-72
2022/08/14 00:23:11;;;;;;;5.13;4.10;;;;;;;24.32;39.55;101074.53;4960531;28;123484;-72
2022/08/14 00:25:51;;;;;;;5.67;4.10;;;;;;;24.29;39.57;101076.53;4960381;28;114361;-72
2022/08/14 00:28:34;;;;;;;6.70;4.63;;;;;;;24.28;39.58;101069.44;4964013;28;112789;-72
2022/08/14 00:31:04;;;;;;;6.65;4.53;;;;;;;24.27;39.74;101065.03;4960223;28;125183;-72
2022/08/14 00:33:32;;;;;;;6.03;4.38;;;;;;;24.24;39.71;101064.47;4944043;28;123433;-73
2022/08/14 00:36:21;;;;;;;4.53;4.13;;;;;;;24.20;39.90;101061.22;4962187;28;116162;-72
2022/08/14 00:39:12;;;;;;;5.20;4.55;;;;;;;24.17;39.95;101056.13;4959869;28;114927;-72
2022/08/14 00:41:41;;;;;;;4.93;4.20;;;;;;;24.15;39.93;101058.16;4946096;28;122997;-72
2022/08/14 00:44:09;;;;;;;6.47;4.55;;;;;;;24.12;39.91;101053.03;4957672;28;122492;-72
2022/08/14 00:46:37;;;;;;;7.05;4.00;;;;;;;24.08;40.02;101051.63;4963513;28;114866;-73
2022/08/14 00:49:07;;;;;;;4.90;4.50;;;;;;;24.05;40.25;101047.38;4945528;28;112995;-72
2022/08/14 00:51:38;;;;;;;5.88;4.70;;;;;;;24.04;40.28;101042.13;4959477;28;126104;-72
2022/08/14 00:54:07;;;;;;;6.20;4.55;;;;;;;24.01;40.49;101034.28;4946838;28;123486;-73
2022/08/14 00:56:50;;;;;;;7.18;4.70;;;;;;;23.97;40.54;101032.91;4965387;28;113357;-72
2022/08/14 00:59:27;;;;;;;7.47;4.73;;;;;;;23.95;40.70;101034.91;4946641;28;113012;-72
2022/08/14 01:01:59;;;;;;;5.88;5.18;;;;;;;23.92;40.64;101033.34;4944903;28;123649;-72
2022/08/14 01:04:30;;;;;;;6.15;5.55;;;;;;;23.93;40.64;101031.50;4963377;28;123044;-73
2022/08/14 01:07:19;;;;;;;6.65;4.93;;;;;;;23.90;40.60;101028.09;4959958;28;113745;-72
2022/08/14 01:10:00;;;;;;;6.25;5.13;;;;;;;23.88;40.73;101032.81;4961047;28;114064;-72
2022/08/14 01:12:28;;;;;;;6.13;4.95;;;;;;;23.86;40.73;101026.69;4961739;28;124123;-72
2022/08/14 01:15:01;;;;;;;6.78;5.13;;;;;;;23.83;40.83;101024.31;4947476;28;122725;-72
2022/08/14 01:23:12;;;;;;;8.32;5.70;;;;;;;23.79;40.97;101012.09;4961144;28;122942;-72
2022/08/14 01:25:49;;;;;;;7.07;5.07;;;;;;;23.76;41.09;100998.81;4959532;28;122810;-72
2022/08/14 01:28:19;;;;;;;5.90;4.93;;;;;;;23.76;41.05;100997.97;4962101;28;115162;-72
2022/08/14 01:31:11;;;;;;;5.82;5.10;;;;;;;23.73;40.92;100993.69;4944285;28;114640;-72
2022/08/14 01:33:44;;;;;;;6.07;5.07;;;;;;;23.71;41.26;100995.72;4954039;28;123362;-72
2022/08/14 01:36:35;;;;;;;6.35;5.38;;;;;;;23.67;41.03;100994.31;4956675;28;123523;-73
2022/08/14 01:39:14;;;;;;;6.35;5.18;;;;;;;23.63;41.23;100990.22;4958176;28;114866;-72
2022/08/14 01:41:47;;;;;;;6.35;5.38;;;;;;;23.61;41.32;100995.78;4958939;28;116416;-73
2022/08/14 01:44:15;;;;;;;7.85;4.88;;;;;;;23.57;41.33;100988.13;4956081;28;123882;-72
2022/08/14 01:47:10;;;;;;;6.60;5.45;;;;;;;23.51;41.42;100985.00;4963146;28;123920;-73
2022/08/14 01:49:39;;;;;;;5.65;5.03;;;;;;;23.48;41.41;100988.00;4960250;28;113658;-72
2022/08/14 01:52:30;;;;;;;7.05;5.78;;;;;;;23.46;41.70;100981.06;4962248;28;114003;-72
2022/08/14 01:55:17;;;;;;;9.48;5.50;;;;;;;23.43;41.71;100987.63;4947810;28;123946;-71
2022/08/14 01:57:45;;;;;;;5.82;5.22;;;;;;;23.41;41.64;100984.19;4960478;28;123920;-72
2022/08/14 02:00:33;;;;;;;7.85;5.50;;;;;;;23.43;41.75;100984.06;4961233;28;114981;-71
2022/08/14 02:03:02;;;;;;;7.50;5.65;;;;;;;23.40;41.78;100982.50;4963179;28;114067;-72
2022/08/14 02:05:34;;;;;;;6.63;5.30;;;;;;;23.40;41.94;100982.50;4962567;28;125282;-72
2022/08/14 02:08:06;;;;;;;5.93;5.20;;;;;;;23.38;41.96;100984.50;4962784;28;123920;-73
2022/08/14 02:10:40;;;;;;;7.10;5.22;;;;;;;23.37;41.97;100982.78;4961569;28;114231;-72
2022/08/14 02:13:15;;;;;;;6.00;5.40;;;;;;;23.36;42.02;100980.22;4961169;28;113948;-72
2022/08/14 02:15:44;;;;;;;7.90;5.32;;;;;;;23.33;42.03;100976.00;4963653;28;125259;-72
2022/08/14 02:18:15;;;;;;;9.35;5.78;;;;;;;23.31;42.06;100978.00;4961854;28;124225;-73
2022/08/14 02:20:46;;;;;;;6.45;5.18;;;;;;;23.30;42.25;100976.28;4945877;28;114252;-72
2022/08/14 02:23:15;;;;;;;8.75;5.60;;;;;;;23.28;42.31;100975.56;4961874;28;114874;-72
2022/08/14 02:25:50;;;;;;;7.22;5.55;;;;;;;23.26;42.39;100980.28;4962142;28;124888;-72
2022/08/14 02:28:21;;;;;;;8.43;5.05;;;;;;;23.25;42.28;100975.91;4963434;28;123542;-72
2022/08/14 02:31:09;;;;;;;6.70;5.45;;;;;;;23.23;42.28;100980.59;4960048;28;114124;-72
2022/08/14 02:33:41;;;;;;;7.68;5.53;;;;;;;23.22;42.18;100984.28;4945702;28;113531;-72
2022/08/14 02:36:13;;;;;;;6.28;5.22;;;;;;;23.19;42.32;100971.06;4962385;28;123586;-73
2022/08/14 02:39:00;;;;;;;6.82;5.80;;;;;;;23.16;42.43;100980.31;4965576;28;122855;-72
2022/08/14 02:41:28;;;;;;;6.55;5.80;;;;;;;23.12;42.57;100974.38;4951237;28;115341;-72
2022/08/14 02:44:04;;;;;;;7.05;5.90;;;;;;;23.06;42.58;100964.16;4949836;28;113892;-73
2022/08/14 02:46:34;;;;;;;7.25;6.15;;;;;;;23.03;42.64;100975.25;4952729;28;123119;-73
2022/08/14 02:49:07;;;;;;;7.35;6.07;;;;;;;22.96;42.81;100971.38;4949823;28;124257;-72
2022/08/14 02:51:37;;;;;;;9.52;6.25;;;;;;;22.92;42.76;100975.38;4975926;28;113822;-71
2022/08/14 02:54:06;;;;;;;8.15;6.90;;;;;;;22.88;43.09;100968.59;4974772;28;113526;-72
2022/08/14 02:56:37;;;;;;;7.50;6.32;;;;;;;22.83;43.10;100962.75;4966082;28;123417;-73
2022/08/14 02:59:30;;;;;;;8.30;6.45;;;;;;;22.78;43.32;100965.06;4966318;28;124085;-72
2022/08/14 03:02:01;;;;;;;9.55;6.70;;;;;;;22.72;43.59;100961.94;4960228;28;113838;-72
2022/08/14 03:04:29;;;;;;;7.50;6.70;;;;;;;22.68;43.54;100965.94;4964214;28;113566;-72
2022/08/14 03:06:57;;;;;;;7.97;6.78;;;;;;;22.65;43.63;100966.22;4963727;28;125125;-72
2022/08/14 03:09:38;;;;;;;8.85;6.55;;;;;;;22.60;43.63;100957.69;4962087;28;123804;-71
2022/08/14 03:12:25;;;;;;;8.20;6.45;;;;;;;22.57;43.58;100952.59;4962847;28;114790;-72
2022/08/14 03:15:01;;;;;;;10.55;6.78;;;;;;;22.54;43.88;100952.88;4932091;28;113015;-72
2022/08/14 03:17:29;;;;;;;8.80;6.75;;;;;;;22.51;43.97;100953.19;4948501;28;124432;-72
2022/08/14 03:20:09;;;;;;;7.15;6.10;;;;;;;22.49;44.00;100947.03;4962686;28;124803;-72
2022/08/14 03:22:38;;;;;;;7.43;6.35;;;;;;;22.46;44.07;100950.91;4948899;28;114984;-72
2022/08/14 03:25:10;;;;;;;9.73;6.60;;;;;;;22.44;44.03;100946.66;4967938;28;113765;-71
2022/08/14 03:27:38;;;;;;;8.10;6.10;;;;;;;22.40;44.07;100946.09;4948523;28;123735;-70
2022/08/14 03:30:26;;;;;;;8.15;6.07;;;;;;;22.35;44.22;100943.78;4964200;28;123714;-71
2022/08/14 03:33:10;;;;;;;8.43;6.43;;;;;;;22.31;44.47;100946.94;4958895;28;113499;-71
2022/08/14 03:35:41;;;;;;;10.63;6.80;;;;;;;22.29;44.58;100944.38;4962877;28;114072;-71
2022/08/14 03:38:29;;;;;;;9.30;7.07;;;;;;;22.25;44.46;100929.47;4960792;28;124547;-71
2022/08/14 03:41:22;;;;;;;8.98;6.60;;;;;;;22.20;44.70;100923.63;4962730;28;123775;-72
2022/08/14 03:43:56;;;;;;;8.82;6.65;;;;;;;22.16;44.67;100933.00;4942626;28;114138;-71
2022/08/14 03:46:43;;;;;;;9.07;6.65;;;;;;;22.14;44.62;100930.44;4963163;28;114109;-71
2022/08/14 03:49:23;;;;;;;8.05;6.60;;;;;;;22.12;44.91;100936.97;4961397;28;123778;-71
2022/08/14 03:52:03;;;;;;;8.95;7.15;;;;;;;22.09;45.01;100938.09;4942996;28;123448;-72
2022/08/14 03:54:45;;;;;;;7.95;6.82;;;;;;;22.07;44.90;100944.63;4958907;28;114356;-71
2022/08/14 03:57:19;;;;;;;10.75;7.75;;;;;;;22.07;45.02;100941.94;4961094;28;114115;-71
2022/08/14 03:59:48;;;;;;;9.38;7.22;;;;;;;22.07;44.94;100941.94;4933403;28;124411;-73
2022/08/14 04:02:15;;;;;;;8.60;7.10;;;;;;;22.07;44.97;100933.84;4960350;28;124180;-73
2022/08/14 04:05:00;;;;;;;8.00;6.97;;;;;;;22.06;45.07;100932.16;4960443;28;114825;-71
2022/08/14 04:07:40;;;;;;;9.45;7.43;;;;;;;22.04;45.56;100934.13;4957081;28;113852;-71
2022/08/14 04:10:26;;;;;;;10.68;8.00;;;;;;;22.01;45.37;100935.25;4957551;28;124103;-73
2022/08/14 04:13:04;;;;;;;9.25;7.68;;;;;;;22.00;45.43;100938.09;4953277;28;123966;-72
2022/08/14 04:15:32;;;;;;;10.75;7.07;;;;;;;21.96;45.35;100933.00;4957888;28;114821;-74
2022/08/14 04:18:19;;;;;;;8.90;7.93;;;;;;;21.93;45.46;100932.44;4961849;28;114138;-71
2022/08/14 04:20:47;;;;;;;10.75;7.40;;;;;;;21.90;45.63;100930.84;4962012;28;123465;-72
2022/08/14 04:23:22;;;;;;;11.35;7.40;;;;;;;21.89;45.82;100937.25;4961536;28;123797;-72
2022/08/14 04:26:01;;;;;;;10.30;7.13;;;;;;;21.86;45.85;100933.97;4966989;28;114668;-67
2022/08/14 04:28:28;;;;;;;9.85;7.70;;;;;;;21.85;45.65;100930.44;4960260;28;114423;-67
2022/08/14 04:31:18;;;;;;;9.98;7.85;;;;;;;21.84;45.95;100928.72;4958584;28;123872;-69
2022/08/14 04:34:05;;;;;;;9.23;8.15;;;;;;;21.82;45.99;100925.31;4958038;28;123997;-67
2022/08/14 04:43:34;;;;;;;12.90;8.40;;;;;;;21.79;45.95;100922.88;4964463;28;113778;-66
2022/08/14 04:44:59;;;;;;;11.10;8.55;;;;;;;21.69;46.17;100930.13;4960682;28;123795;-71
2022/08/14 04:50:20;;;;;;;9.77;8.02;;;;;;;21.67;46.37;100910.53;4963127;28;114298;-71
2022/08/14 04:53:03;;;;;;;11.65;8.05;;;;;;;21.67;46.56;100905.16;4958965;28;123710;-71
2022/08/14 04:55:32;;;;;;;12.40;8.98;;;;;;;21.66;46.59;100903.44;4945355;28;124803;-72
2022/08/14 04:57:59;;;;;;;12.95;8.18;;;;;;;21.65;46.78;100893.66;4946905;28;113981;-70
2022/08/14 05:00:28;;;;;;;11.82;8.60;;;;;;;21.62;46.80;100896.63;4966462;28;114371;-71
2022/08/14 05:02:56;;;;;;;10.98;8.18;;;;;;;21.62;46.91;100902.00;4961770;28;124057;-71
2022/08/14 05:05:23;;;;;;;13.20;8.93;;;;;;;21.60;47.08;100904.84;4960282;28;124672;-70
2022/08/14 05:07:52;;;;;;;11.48;9.10;;;;;;;21.61;47.30;100900.34;4962359;28;114446;-71
2022/08/14 05:10:27;;;;;;;13.10;8.50;;;;;;;21.61;47.33;100906.56;4960705;28;113959;-73
2022/08/14 05:12:58;;;;;;;11.50;8.45;;;;;;;21.62;47.43;100902.00;4958962;28;124320;-72
2022/08/14 05:15:41;;;;;;;13.45;8.60;;;;;;;21.65;47.61;100896.34;4961719;28;123867;-72
2022/08/14 05:18:11;;;;;;;11.35;8.63;;;;;;;21.66;47.71;100888.13;4963766;28;114497;-72
2022/08/14 05:21:02;;;;;;;10.45;9.00;;;;;;;21.69;47.71;100892.38;4962374;28;114321;-72
2022/08/14 05:23:50;;;;;;;10.48;8.80;;;;;;;21.71;47.62;100890.41;4964663;28;123631;-72
2022/08/14 05:26:20;;;;;;;11.35;8.50;;;;;;;21.74;47.81;100895.53;4962660;28;123660;-70
2022/08/14 05:28:47;;;;;;;11.52;8.30;;;;;;;21.76;47.89;100888.13;4950547;28;114613;-72
2022/08/14 05:31:18;;;;;;;11.15;8.57;;;;;;;21.81;48.03;100891.25;4954025;28;114071;-72
2022/08/14 05:33:48;;;;;;;10.52;8.85;;;;;;;21.85;48.21;100892.69;4963377;28;124643;-72
2022/08/14 05:36:24;;;;;;;9.82;7.93;;;;;;;21.89;48.03;100888.72;4968786;28;123604;-72
2022/08/14 05:38:53;;;;;;;11.45;8.55;;;;;;;21.93;48.13;100884.72;4967760;28;115715;-72
2022/08/14 05:41:21;;;;;;;11.93;8.77;;;;;;;22.00;48.21;100892.25;4951044;28;112579;-72
2022/08/14 05:43:49;;;;;;;14.63;8.13;;;;;;;22.06;48.34;100889.00;4969879;28;123503;-72
2022/08/14 05:46:22;;;;;;;10.68;8.60;;;;;;;22.11;48.42;100881.31;4965240;28;125562;-72
2022/08/14 05:48:55;;;;;;;10.23;8.93;;;;;;;22.16;48.64;100884.44;4968439;28;115583;-72
2022/08/14 05:51:24;;;;;;;9.93;8.38;;;;;;;22.25;48.56;100883.59;4969044;28;114270;-72
2022/08/14 05:53:51;;;;;;;12.43;8.63;;;;;;;22.31;48.11;100888.41;4962528;28;124750;-72
2022/08/14 05:56:38;;;;;;;13.23;8.77;;;;;;;22.38;48.60;100883.31;4964890;28;123332;-72
2022/08/14 05:59:06;;;;;;;10.40;8.48;;;;;;;22.46;48.65;100886.13;4965906;28;113272;-72
2022/08/14 06:01:33;;;;;;;11.70;8.63;;;;;;;22.53;48.49;100889.09;4965137;28;114201;-72
2022/08/14 06:04:02;;;;;;;10.23;8.35;;;;;;;22.62;48.59;100890.94;4963492;28;124045;-72
2022/08/14 06:06:31;;;;;;;12.20;8.98;;;;;;;22.71;48.78;100884.63;4963289;28;123079;-71
2022/08/14 06:09:06;;;;;;;11.45;9.00;;;;;;;22.80;48.81;100887.44;4961572;28;115204;-72
2022/08/14 06:11:36;;;;;;;13.10;9.35;;;;;;;22.89;48.63;100875.75;4966718;28;112254;-72
2022/08/14 06:14:03;;;;;;;12.77;9.52;;;;;;;22.99;48.76;100876.56;4972307;28;123667;-71
2022/08/14 06:16:47;;;;;;;10.57;8.73;;;;;;;23.10;48.54;100873.69;4972808;28;122816;-71
2022/08/14 06:19:14;;;;;;;11.93;9.38;;;;;;;23.21;48.61;100880.75;4973590;28;114753;-72
2022/08/14 06:21:44;;;;;;;13.18;9.30;;;;;;;23.33;48.60;100884.09;4973051;28;114421;-71
2022/08/14 06:24:12;;;;;;;10.45;8.77;;;;;;;23.44;48.48;100881.19;4972386;28;123324;-72
2022/08/14 06:26:46;;;;;;;14.68;9.00;;;;;;;23.57;48.47;100888.09;4969070;28;122739;-72
2022/08/14 06:29:22;;;;;;;12.35;9.38;;;;;;;23.69;48.39;100878.72;4954517;28;115828;-71
2022/08/14 06:31:51;;;;;;;11.77;9.35;;;;;;;23.81;48.20;100877.53;4953827;28;113769;-72
2022/08/14 06:34:20;;;;;;;13.52;9.32;;;;;;;23.95;48.04;100878.00;4978011;28;123692;-72
2022/08/14 06:37:07;;;;;;;10.20;8.55;;;;;;;24.09;48.05;100872.00;4962809;28;123986;-69
2022/08/14 06:39:35;;;;;;;11.02;8.50;;;;;;;24.24;47.95;100877.72;4968844;28;113596;-69
2022/08/14 06:42:03;;;;;;;11.27;9.20;;;;;;;24.38;47.55;100876.31;4958863;28;113147;-72
2022/08/14 06:44:31;;;;;;;12.73;9.38;;;;;;;24.53;47.38;100871.19;4970016;28;124550;-72
2022/08/14 06:47:01;;;;;;;13.02;8.60;;;;;;;24.68;47.22;100870.44;4975320;28;123723;-71
2022/08/14 06:49:29;;;;;;;10.35;8.32;;;;;;;24.84;47.29;100874.22;4971156;28;114084;-70
2022/08/14 06:52:06;;;;;;;12.68;8.60;;;;;;;25.02;46.82;100861.44;4970223;28;114172;-70
2022/08/14 06:54:34;;;;;;;14.98;8.75;;;;;;;25.17;46.89;100863.56;4968580;28;123192;-70
2022/08/14 06:57:01;;;;;;;10.35;8.40;;;;;;;25.34;46.62;100859.91;4970215;28;123611;-70
2022/08/14 06:59:29;;;;;;;12.55;8.80;;;;;;;25.51;46.38;100859.94;4970059;28;114554;-71
2022/08/14 07:07:37;;;;;;;10.73;9.30;;;;;;;26.11;45.36;100851.53;4956387;28;123652;-71
2022/08/14 07:10:06;;;;;;;11.10;8.57;;;;;;;26.30;45.35;100849.50;4964623;28;112425;-71
2022/08/14 07:12:44;;;;;;;10.32;8.88;;;;;;;26.48;44.94;100844.69;4938508;28;113891;-71
2022/08/14 07:15:31;;;;;;;9.48;8.43;;;;;;;26.67;44.50;100848.06;4968511;28;124059;-71
2022/08/14 07:18:06;;;;;;;9.63;8.38;;;;;;;26.83;44.51;100856.16;4968893;28;123999;-72
2022/08/14 07:20:36;;;;;;;12.38;8.95;;;;;;;26.97;43.99;100847.28;4949567;28;113724;-71
2022/08/14 07:23:05;;;;;;;11.82;9.45;;;;;;;27.14;44.17;100849.91;4956534;28;114421;-71
2022/08/14 07:25:38;;;;;;;11.48;8.18;;;;;;;27.32;44.03;100855.13;4954623;28;123775;-71
2022/08/14 07:28:13;;;;;;;9.35;7.90;;;;;;;27.49;43.74;100854.00;4979032;28;124486;-70
2022/08/14 07:30:47;;;;;;;8.82;7.80;;;;;;;27.64;43.06;100843.19;4988142;28;116027;-71
2022/08/14 07:33:19;;;;;;;11.20;8.63;;;;;;;27.80;42.84;100836.75;4981484;28;114262;-71
2022/08/14 07:35:52;;;;;;;10.25;8.38;;;;;;;27.97;42.98;100837.50;4986276;28;126365;-70
2022/08/14 07:38:28;;;;;;;8.50;6.82;;;;;;;28.15;42.84;100840.75;4984847;28;124184;-71
2022/08/14 07:41:04;;;;;;;7.88;7.13;;;;;;;28.36;42.32;100841.91;4987079;28;115409;-71
2022/08/14 07:43:41;;;;;;;9.30;7.13;;;;;;;28.56;42.09;100846.81;4975827;28;114653;-70
2022/08/14 07:46:09;;;;;;;9.75;7.68;;;;;;;28.71;42.04;100845.81;4992590;28;124286;-70
2022/08/14 07:48:42;;;;;;;8.02;6.90;;;;;;;28.87;41.58;100850.22;4992174;28;124445;-70
2022/08/14 07:51:09;;;;;;;11.35;6.95;;;;;;;29.03;41.70;100831.97;4988015;28;114056;-70
2022/08/14 07:53:39;;;;;;;8.10;7.30;;;;;;;29.20;41.49;100828.00;4993731;28;113181;-70
2022/08/14 07:56:09;;;;;;;9.23;7.68;;;;;;;29.38;41.36;100829.44;4993670;28;124822;-70
2022/08/14 07:58:57;;;;;;;8.48;6.88;;;;;;;29.53;40.59;100827.50;4977746;28;122879;-70
2022/08/14 08:01:27;;;;;;;8.38;7.47;;;;;;;29.68;40.65;100825.56;4971730;28;118287;-70
2022/08/14 08:03:58;;;;;;;10.60;7.20;;;;;;;29.85;40.57;100830.78;4976150;28;114893;-70
2022/08/14 08:06:27;;;;;;;7.78;6.45;;;;;;;30.00;40.01;100823.34;4975790;28;124539;-70
2022/08/14 08:08:57;;;;;;;7.07;6.38;;;;;;;30.16;39.75;100826.81;4986270;28;124652;-71
2022/08/14 08:11:34;;;;;;;6.82;6.13;;;;;;;30.27;39.65;100823.53;4962213;28;113240;-70
2022/08/14 08:14:06;;;;;;;8.05;6.50;;;;;;;30.37;38.87;100828.72;4979307;28;114457;-71
2022/08/14 08:16:45;;;;;;;7.05;6.35;;;;;;;30.47;39.02;100827.28;4991998;28;124127;-71
2022/08/14 08:19:12;;;;;;;6.60;5.95;;;;;;;30.56;38.93;100827.16;4994452;28;124735;-71
2022/08/14 08:21:40;;;;;;;7.15;6.43;;;;;;;30.66;38.53;100830.34;4992610;28;116097;-72
2022/08/14 08:24:11;;;;;;;7.07;6.15;;;;;;;30.78;38.12;100831.47;4979241;28;115521;-72
2022/08/14 08:26:44;;;;;;;8.43;6.20;;;;;;;30.88;37.74;100833.00;4987257;28;124914;-72
2022/08/14 08:29:19;;;;;;;7.53;6.50;;;;;;;30.94;37.50;100821.25;4991345;28;123190;-72
2022/08/14 08:31:55;;;;;;;7.13;6.32;;;;;;;31.05;37.16;100820.69;4990090;28;114137;-72
2022/08/14 08:34:28;;;;;;;7.87;6.60;;;;;;;31.14;37.27;100824.09;4970562;28;114624;-72
2022/08/14 08:36:57;;;;;;;9.55;6.10;;;;;;;31.22;37.41;100827.47;4980733;28;124056;-73
2022/08/14 08:39:24;;;;;;;6.43;5.53;;;;;;;31.28;36.98;100831.25;4990576;28;124331;-72
2022/08/14 08:42:08;;;;;;;9.02;5.95;;;;;;;31.36;37.18;100822.88;4990037;28;114548;-72
2022/08/14 08:44:36;;;;;;;8.35;6.43;;;;;;;31.47;36.70;100820.63;4991795;28;115781;-73
2022/08/14 08:47:04;;;;;;;6.35;5.60;;;;;;;31.54;36.62;100825.03;4973500;28;123589;-73
2022/08/14 08:49:41;;;;;;;5.90;5.30;;;;;;;31.61;36.62;100820.44;4992808;28;123484;-73
2022/08/14 08:52:15;;;;;;;8.73;6.50;;;;;;;31.71;36.33;100814.53;4989740;28;115219;-73
2022/08/14 08:54:57;;;;;;;7.53;5.93;;;;;;;31.81;36.22;100819.59;4991515;28;113868;-74
2022/08/14 08:57:24;;;;;;;7.72;5.47;;;;;;;31.85;36.36;100815.38;4989833;28;124640;-73
2022/08/14 08:59:52;;;;;;;7.15;5.43;;;;;;;31.94;36.21;100819.59;4967534;28;124020;-74
2022/08/14 09:02:21;;;;;;;6.38;5.72;;;;;;;32.06;35.90;100805.28;4979251;28;115451;-74
2022/08/14 09:05:01;;;;;;;6.50;5.40;;;;;;;32.17;35.48;100807.38;4973953;28;114208;-74
2022/08/14 09:07:28;;;;;;;6.72;5.43;;;;;;;32.24;35.01;100808.22;4963989;28;123978;-74
2022/08/14 09:09:57;;;;;;;7.40;5.78;;;;;;;32.28;35.16;100809.47;4979133;28;124442;-74
2022/08/14 09:12:32;;;;;;;7.68;5.78;;;;;;;32.33;35.69;100806.94;4938075;28;114937;-74
2022/08/14 09:15:05;;;;;;;7.97;5.50;;;;;;;32.44;35.50;100807.31;4965283;28;115325;-74
2022/08/14 09:17:39;;;;;;;7.15;5.70;;;;;;;32.53;35.09;100795.06;4958746;28;124401;-74
2022/08/14 09:20:10;;;;;;;6.10;5.50;;;;;;;32.55;34.95;100799.31;4970406;28;125997;-74
2022/08/14 09:22:40;;;;;;;6.50;5.50;;;;;;;32.57;34.40;100796.38;4952202;28;112736;-74
2022/08/14 09:25:16;;;;;;;7.43;5.63;;;;;;;32.60;34.83;100795.94;4983813;28;114481;-74
2022/08/14 09:27:46;;;;;;;8.13;5.55;;;;;;;32.69;34.36;100794.63;4951831;28;123338;-74
2022/08/14 09:30:14;;;;;;;7.90;5.50;;;;;;;32.80;34.05;100789.56;4949054;28;122879;-74
2022/08/14 09:33:14;;;;;;;6.85;5.40;;;;;;;32.89;34.50;100778.09;4967415;28;114366;-74
2022/08/14 09:36:34;;;;;;;6.05;5.32;;;;;;;33.03;33.94;100767.06;4970457;28;113149;-74
2022/08/14 09:39:05;;;;;;;8.93;5.50;;;;;;;33.15;34.29;100768.91;4967537;28;124367;-74
2022/08/14 09:41:36;;;;;;;6.20;5.35;;;;;;;33.25;33.60;100767.59;4958607;28;123866;-74
2022/08/14 09:44:40;;;;;;;6.93;5.20;;;;;;;33.29;33.80;100766.91;4943197;28;97875;-74
2022/08/14 09:47:13;;;;;;;7.35;5.45;;;;;;;33.33;33.50;100762.66;4968748;28;114121;-74
2022/08/14 09:49:41;;;;;;;6.32;5.05;;;;;;;33.40;33.32;100762.63;4966777;28;124538;-75
2022/08/14 09:52:11;;;;;;;5.97;5.22;;;;;;;33.47;32.80;100757.91;4967350;28;123437;-74
2022/08/14 09:54:58;;;;;;;7.32;5.90;;;;;;;33.54;32.69;100755.94;4940995;28;113259;-74
2022/08/14 09:57:29;;;;;;;6.40;5.80;;;;;;;33.64;32.55;100751.91;4971405;28;114346;-74
2022/08/14 09:59:56;;;;;;;11.40;5.65;;;;;;;33.73;32.40;100750.56;4965708;28;125367;-74
2022/08/14 10:02:29;;;;;;;6.57;5.32;;;;;;;33.79;32.11;100748.81;4949542;28;123872;-74
2022/08/14 10:05:10;;;;;;;5.75;5.22;;;;;;;33.79;32.33;100738.66;4961339;28;116075;-75
2022/08/14 10:07:50;;;;;;;5.70;5.20;;;;;;;33.84;32.61;100736.09;4945895;28;114231;-72
2022/08/14 10:10:39;;;;;;;6.50;5.35;;;;;;;33.94;32.36;100736.44;4960402;28;123962;-74
2022/08/14 10:13:22;;;;;;;5.65;4.95;;;;;;;34.02;32.30;100731.69;4963609;28;123848;-74
2022/08/14 10:15:50;;;;;;;5.72;5.13;;;;;;;34.11;31.92;100730.31;4945979;28;113469;-74
2022/08/14 10:18:20;;;;;;;6.28;5.30;;;;;;;34.20;31.93;100734.47;4967853;28;113700;-74
2022/08/14 10:20:56;;;;;;;5.90;5.30;;;;;;;34.28;31.73;100725.94;4964451;28;123945;-74
2022/08/14 10:23:26;;;;;;;5.75;5.10;;;;;;;34.31;31.43;100719.13;4967027;28;123397;-73
2022/08/14 10:26:06;;;;;;;6.20;4.70;;;;;;;34.32;31.55;100713.41;4963053;28;114345;-74
2022/08/14 10:28:43;;;;;;;6.43;5.30;;;;;;;34.38;31.25;100719.03;4951766;28;113482;-74
2022/08/14 10:31:33;;;;;;;6.70;5.15;;;;;;;34.43;30.40;100713.69;4965254;28;124564;-74
2022/08/14 10:34:18;;;;;;;5.70;5.05;;;;;;;34.41;30.52;100707.59;4964896;28;122906;-74
2022/08/14 10:36:48;;;;;;;6.38;5.15;;;;;;;34.41;30.38;100713.09;4966704;28;113986;-74
2022/08/14 10:39:28;;;;;;;5.32;4.80;;;;;;;34.41;30.56;100707.59;4959885;28;113279;-75
2022/08/14 10:42:05;;;;;;;5.60;4.50;;;;;;;34.45;30.11;100708.81;4965365;28;123242;-75
2022/08/14 10:44:48;;;;;;;4.80;4.40;;;;;;;34.49;30.39;100705.38;4950343;28;123204;-76
2022/08/14 10:47:19;;;;;;;5.35;4.85;;;;;;;34.58;30.48;100699.53;4954029;28;114323;-73
2022/08/14 10:50:08;;;;;;;4.97;4.35;;;;;;;34.63;29.49;100695.03;4961113;28;114269;-74
2022/08/14 10:52:41;;;;;;;4.63;4.20;;;;;;;34.68;29.40;100689.72;4948547;28;123078;-73
2022/08/14 10:55:12;;;;;;;4.57;4.18;;;;;;;34.76;29.58;100684.94;4967766;28;124269;-74
2022/08/14 10:57:49;;;;;;;5.30;4.13;;;;;;;34.87;28.66;100684.16;4967878;28;115800;-72
2022/08/14 11:00:20;;;;;;;3.85;3.50;;;;;;;34.96;28.63;100685.50;4971998;28;115304;-73
2022/08/14 11:03:03;;;;;;;6.13;3.75;;;;;;;35.03;28.39;100683.47;4969530;28;122485;-74
2022/08/14 11:05:40;;;;;;;6.55;3.90;;;;;;;35.16;28.20;100670.59;4973076;28;123769;-73
2022/08/14 11:08:10;;;;;;;4.82;4.32;;;;;;;35.24;28.60;100678.50;4949499;28;112709;-73
2022/08/14 11:10:54;;;;;;;5.18;4.32;;;;;;;35.30;27.71;100677.56;4987505;28;113597;-72
2022/08/14 11:13:26;;;;;;;4.30;3.90;;;;;;;35.32;27.81;100675.44;4987164;28;123920;-74
2022/08/14 11:15:59;;;;;;;4.63;4.10;;;;;;;35.37;27.61;100677.47;4988689;28;123818;-73
2022/08/14 11:18:29;;;;;;;6.05;4.10;;;;;;;35.41;27.31;100668.47;4984037;28;115073;-74
2022/08/14 11:21:05;;;;;;;4.82;3.50;;;;;;;35.46;27.64;100670.53;4954545;28;112292;-74
2022/08/14 11:23:38;;;;;;;3.45;3.03;;;;;;;35.52;27.61;100658.53;4963502;28;124813;-75
2022/08/14 11:26:12;;;;;;;3.83;3.33;;;;;;;35.63;26.57;100670.66;4928398;28;123725;-75
2022/08/14 11:28:42;;;;;;;6.32;3.80;;;;;;;35.71;26.77;100675.81;4947296;28;114113;-74
2022/08/14 11:31:22;;;;;;;6.93;4.20;;;;;;;35.73;26.71;100670.91;4965747;28;113804;-75
2022/08/14 11:33:56;;;;;;;5.95;4.05;;;;;;;35.75;26.45;100676.19;4966536;28;124734;-75
2022/08/14 11:36:27;;;;;;;3.97;3.45;;;;;;;35.75;27.68;100668.75;4966704;28;123803;-75
2022/08/14 11:39:19;;;;;;;4.82;3.85;;;;;;;35.85;27.19;100669.00;4965365;28;114113;-74
2022/08/14 11:42:02;;;;;;;6.30;4.00;;;;;;;36.00;26.79;100659.41;4952157;28;113922;-74
2022/08/14 11:44:51;;;;;;;4.53;4.07;;;;;;;36.06;26.37;100658.41;4948950;28;124333;-75
2022/08/14 11:47:23;;;;;;;5.00;3.72;;;;;;;36.04;26.17;100655.06;4967042;28;122475;-75
2022/08/14 11:49:50;;;;;;;4.00;3.60;;;;;;;36.04;25.80;100649.56;4968482;28;115790;-75
2022/08/14 11:52:18;;;;;;;6.32;4.00;;;;;;;36.04;25.72;100655.06;4969355;28;116406;-74
2022/08/14 11:54:57;;;;;;;6.43;4.53;;;;;;;36.06;26.42;100647.38;4963672;28;123836;-75
2022/08/14 11:57:25;;;;;;;5.03;4.53;;;;;;;36.08;26.21;100650.72;4965227;28;124342;-74
2022/08/14 12:00:06;;;;;;;6.22;4.03;;;;;;;36.05;25.67;100648.44;4967469;28;114053;-73
2022/08/14 12:02:35;;;;;;;4.38;3.97;;;;;;;36.01;25.57;100644.50;4948043;28;113194;-74
2022/08/14 12:05:37;;;;;;;4.55;3.78;;;;;;;36.00;25.20;100631.81;4965917;28;124795;-75
2022/08/14 12:08:09;;;;;;;5.60;4.30;;;;;;;36.06;25.35;100630.84;4964425;28;123496;-75
2022/08/14 12:10:41;;;;;;;4.73;3.83;;;;;;;36.07;25.50;100621.47;4968054;28;113453;-75